Time;durP1;ratioP1;P1;durP2;ratioP2;P2;SDS_P1;SDS_P2;PMS_P1;PMS_P2;Temp;Humidity;BMP_temperature;BMP_pressure;BME280_temperature;BME280_humidity;BME280_pressure;Samples;Min_cycle;Max_cycle;Signal;HPM_P1;HPM_P2
2022/03/31 00:02:03;;;;;;;;;;;5.20;99.90;;;;;;5012416;28;20020;-74
2022/03/31 00:04:29;;;;;;;;;;;4.70;99.90;;;;;;5030326;28;19921;-75
2022/03/31 00:06:55;;;;;;;;;;;4.50;99.90;;;;;;5012570;28;19968;-75
2022/03/31 00:09:20;;;;;;;;;;;4.50;99.90;;;;;;5013001;28;19952;-75
2022/03/31 00:11:46;;;;;;;;;;;4.50;99.90;;;;;;5012092;28;19932;-75
2022/03/31 00:14:11;;;;;;;;;;;4.40;99.90;;;;;;5029091;28;19917;-76
2022/03/31 00:16:37;;;;;;;;;;;4.30;99.90;;;;;;4999609;28;20443;-75
2022/03/31 00:19:02;;;;;;;;;;;4.40;99.90;;;;;;5009120;28;20018;-75
2022/03/31 00:21:28;;;;;;;;;;;4.30;99.90;;;;;;4992637;28;19944;-76
2022/03/31 00:23:54;;;;;;;;;;;4.30;99.90;;;;;;5008752;28;19924;-75
2022/03/31 00:26:19;;;;;;;;;;;4.30;99.90;;;;;;5009616;28;20007;-75
2022/03/31 00:28:45;;;;;;;;;;;4.90;99.90;;;;;;5009067;28;20419;-75
2022/03/31 00:31:10;;;;;;;;;;;4.30;99.90;;;;;;4992237;28;19921;-75
2022/03/31 00:33:36;;;;;;;;;;;4.20;99.90;;;;;;5009325;28;19921;-75
2022/03/31 00:36:01;;;;;;;;;;;4.20;99.90;;;;;;4992309;28;19918;-76
2022/03/31 00:38:27;;;;;;;;;;;4.20;99.90;;;;;;5009011;28;19917;-76
2022/03/31 00:40:53;;;;;;;;;;;4.20;99.90;;;;;;4992394;28;19996;-75
2022/03/31 00:43:19;;;;;;;;;;;4.30;99.90;;;;;;4992457;28;19917;-76
2022/03/31 00:45:47;;;;;;;;;;;4.20;99.90;;;;;;4992878;28;19921;-75
2022/03/31 00:48:14;;;;;;;;;;;4.20;99.90;;;;;;4992147;28;19956;-76
2022/03/31 00:50:39;;;;;;;;;;;4.20;99.90;;;;;;4992599;28;20250;-75
2022/03/31 00:53:05;;;;;;;;;;;4.60;99.90;;;;;;5011710;28;19924;-75
2022/03/31 00:55:31;;;;;;;;;;;4.10;99.90;;;;;;5012032;28;19947;-75
2022/03/31 00:57:57;;;;;;;;;;;4.10;99.90;;;;;;5011569;28;19917;-75
2022/03/31 01:00:23;;;;;;;;;;;4.20;99.90;;;;;;5012100;28;19927;-76
2022/03/31 01:02:49;;;;;;;;;;;4.10;99.90;;;;;;5011963;28;19917;-75
2022/03/31 01:05:14;;;;;;;;;;;4.00;99.90;;;;;;5011638;28;20396;-75
2022/03/31 01:07:40;;;;;;;;;;;4.00;99.90;;;;;;5012161;28;20055;-75
2022/03/31 01:10:06;;;;;;;;;;;4.00;99.90;;;;;;5011412;28;19936;-75
2022/03/31 01:12:33;;;;;;;;;;;4.00;99.90;;;;;;5027922;28;19948;-75
2022/03/31 01:15:06;;;;;;;;;;;4.00;99.90;;;;;;5011577;28;19960;-75
2022/03/31 01:17:32;;;;;;;;;;;3.90;99.90;;;;;;5011785;28;19971;-75
2022/03/31 01:19:58;;;;;;;;;;;3.90;99.90;;;;;;4997510;28;20312;-75
2022/03/31 01:22:25;;;;;;;;;;;3.90;99.90;;;;;;5029610;28;19917;-75
2022/03/31 01:24:51;;;;;;;;;;;4.40;99.90;;;;;;4991867;28;19917;-76
2022/03/31 01:27:17;;;;;;;;;;;3.90;99.90;;;;;;5011821;28;20019;-75
2022/03/31 01:29:42;;;;;;;;;;;3.80;99.90;;;;;;5003540;28;19960;-75
2022/03/31 01:32:08;;;;;;;;;;;3.90;99.90;;;;;;5007845;28;19921;-76
2022/03/31 01:34:34;;;;;;;;;;;3.80;99.90;;;;;;5008340;28;19921;-75
2022/03/31 01:36:59;;;;;;;;;;;3.80;99.90;;;;;;5007836;28;19917;-74
2022/03/31 01:39:25;;;;;;;;;;;4.10;99.90;;;;;;5008481;28;20440;-75
2022/03/31 01:41:50;;;;;;;;;;;3.80;99.90;;;;;;5008161;28;19924;-75
2022/03/31 01:44:16;;;;;;;;;;;3.80;99.90;;;;;;5011288;28;19917;-76
2022/03/31 01:46:42;;;;;;;;;;;3.80;99.90;;;;;;5026922;28;19979;-75
2022/03/31 01:49:07;;;;;;;;;;;3.90;99.90;;;;;;4991464;28;19933;-75
2022/03/31 01:51:34;;;;;;;;;;;3.90;99.90;;;;;;5008111;28;19960;-75
2022/03/31 01:53:59;;;;;;;;;;;4.70;99.90;;;;;;5009216;28;20002;-75
2022/03/31 01:56:25;;;;;;;;;;;3.90;99.90;;;;;;5009547;28;20390;-75
2022/03/31 01:58:50;;;;;;;;;;;3.80;99.90;;;;;;5008842;28;20011;-75
2022/03/31 02:01:16;;;;;;;;;;;3.80;99.90;;;;;;5011708;28;19979;-75
2022/03/31 02:03:41;;;;;;;;;;;3.80;99.90;;;;;;5011584;28;19918;-75
2022/03/31 02:06:07;;;;;;;;;;;3.80;99.90;;;;;;4996052;28;19929;-76
2022/03/31 02:08:32;;;;;;;;;;;3.80;99.90;;;;;;4974902;28;19918;-75
2022/03/31 02:10:58;;;;;;;;;;;4.60;99.90;;;;;;4972909;28;20016;-76
2022/03/31 02:13:23;;;;;;;;;;;3.80;99.90;;;;;;4975780;28;19972;-75
2022/03/31 02:15:49;;;;;;;;;;;3.70;99.90;;;;;;4975300;28;19917;-75
2022/03/31 02:18:15;;;;;;;;;;;3.80;99.90;;;;;;4974384;28;20354;-76
2022/03/31 02:20:41;;;;;;;;;;;4.00;99.90;;;;;;4975069;28;20421;-75
2022/03/31 02:23:07;;;;;;;;;;;4.40;99.90;;;;;;4975291;28;19929;-75
2022/03/31 02:25:34;;;;;;;;;;;3.70;99.90;;;;;;4973718;28;19918;-75
2022/03/31 02:28:00;;;;;;;;;;;3.70;99.90;;;;;;4974278;28;20072;-76
2022/03/31 02:30:27;;;;;;;;;;;4.00;99.90;;;;;;4992921;28;19982;-75
2022/03/31 02:32:52;;;;;;;;;;;3.80;99.90;;;;;;4975365;28;19921;-75
2022/03/31 02:35:18;;;;;;;;;;;4.50;99.90;;;;;;4975083;28;19917;-75
2022/03/31 02:37:44;;;;;;;;;;;4.10;99.90;;;;;;4974559;28;19929;-75
2022/03/31 02:40:09;;;;;;;;;;;3.70;99.90;;;;;;4974193;28;19991;-75
2022/03/31 02:42:35;;;;;;;;;;;3.60;99.90;;;;;;4975171;28;19944;-75
2022/03/31 02:45:04;;;;;;;;;;;3.60;99.90;;;;;;4974855;28;19917;-76
2022/03/31 02:47:30;;;;;;;;;;;3.80;99.90;;;;;;4975324;28;20408;-75
2022/03/31 02:49:56;;;;;;;;;;;3.80;99.90;;;;;;4975478;28;19918;-75
2022/03/31 02:52:22;;;;;;;;;;;3.60;99.90;;;;;;4992438;28;19968;-75
2022/03/31 02:57:32;;;;;;;;;;;3.70;99.90;;;;;;5011888;28;19917;-76
2022/03/31 02:59:57;;;;;;;;;;;3.90;99.90;;;;;;4994933;28;19925;-75
2022/03/31 03:02:23;;;;;;;;;;;3.60;99.90;;;;;;4994392;28;19917;-74
2022/03/31 03:04:49;;;;;;;;;;;3.60;99.90;;;;;;5000216;28;20039;-75
2022/03/31 03:07:15;;;;;;;;;;;3.60;99.90;;;;;;4997743;28;20340;-75
2022/03/31 03:09:41;;;;;;;;;;;4.80;99.90;;;;;;5014069;28;20000;-75
2022/03/31 03:12:07;;;;;;;;;;;3.40;99.90;;;;;;5031246;28;19921;-75
2022/03/31 03:14:33;;;;;;;;;;;3.40;99.90;;;;;;5014009;28;19917;-74
2022/03/31 03:16:59;;;;;;;;;;;3.40;99.90;;;;;;5014052;28;19917;-76
2022/03/31 03:19:25;;;;;;;;;;;3.40;99.90;;;;;;4998679;28;20377;-75
2022/03/31 03:21:50;;;;;;;;;;;3.30;99.90;;;;;;4994128;28;19928;-75
2022/03/31 03:24:16;;;;;;;;;;;3.30;99.90;;;;;;5010568;28;19917;-75
2022/03/31 03:26:41;;;;;;;;;;;3.40;99.90;;;;;;4993997;28;19971;-76
2022/03/31 03:29:07;;;;;;;;;;;3.40;99.90;;;;;;4994156;28;19940;-76
2022/03/31 03:31:33;;;;;;;;;;;3.30;99.90;;;;;;5010292;28;19976;-75
2022/03/31 03:33:58;;;;;;;;;;;3.30;99.90;;;;;;4994231;28;19963;-75
2022/03/31 03:36:26;;;;;;;;;;;3.90;99.90;;;;;;5011047;28;19924;-75
2022/03/31 03:38:52;;;;;;;;;;;3.30;99.90;;;;;;5031195;28;20373;-75
2022/03/31 03:41:18;;;;;;;;;;;3.20;99.90;;;;;;5029665;28;19917;-76
2022/03/31 03:43:44;;;;;;;;;;;3.10;99.90;;;;;;5031117;28;19924;-76
2022/03/31 03:46:10;;;;;;;;;;;4.20;99.90;;;;;;5013190;28;19966;-76
2022/03/31 03:48:35;;;;;;;;;;;3.10;99.90;;;;;;5013256;28;19929;-75
2022/03/31 03:51:01;;;;;;;;;;;3.10;99.90;;;;;;5013269;28;20381;-76
2022/03/31 03:53:26;;;;;;;;;;;3.10;99.90;;;;;;5012771;28;19917;-75
2022/03/31 03:55:52;;;;;;;;;;;3.00;99.90;;;;;;5013123;28;20365;-76
2022/03/31 03:58:18;;;;;;;;;;;3.40;99.90;;;;;;5009913;28;19917;-74
2022/03/31 04:00:44;;;;;;;;;;;3.20;99.90;;;;;;4993462;28;19924;-75
2022/03/31 04:03:10;;;;;;;;;;;3.10;99.90;;;;;;5009356;28;20274;-75
2022/03/31 04:05:35;;;;;;;;;;;3.10;99.90;;;;;;4993343;28;19921;-75
2022/03/31 04:08:01;;;;;;;;;;;3.10;99.90;;;;;;4993109;28;19932;-75
2022/03/31 04:10:26;;;;;;;;;;;3.10;99.90;;;;;;4993020;28;19917;-75
2022/03/31 04:12:52;;;;;;;;;;;3.00;99.90;;;;;;4993166;28;19971;-75
2022/03/31 04:15:18;;;;;;;;;;;3.00;99.90;;;;;;4992000;28;19922;-75
2022/03/31 04:17:43;;;;;;;;;;;2.90;99.90;;;;;;5009709;28;19917;-74
2022/03/31 04:20:19;;;;;;;;;;;2.90;99.90;;;;;;5013117;28;19968;-74
2022/03/31 04:22:44;;;;;;;;;;;2.80;99.90;;;;;;4996467;28;19957;-75
2022/03/31 04:25:11;;;;;;;;;;;3.90;99.90;;;;;;5009279;28;20278;-75
2022/03/31 04:27:37;;;;;;;;;;;2.70;99.90;;;;;;4993205;28;19925;-75
2022/03/31 04:30:04;;;;;;;;;;;2.70;99.90;;;;;;4992463;28;20384;-74
2022/03/31 04:32:30;;;;;;;;;;;2.70;99.90;;;;;;5009189;28;20633;-74
2022/03/31 04:34:56;;;;;;;;;;;3.60;99.90;;;;;;5009430;28;20015;-75
2022/03/31 04:37:21;;;;;;;;;;;2.70;99.90;;;;;;4992630;28;19980;-75
2022/03/31 04:39:47;;;;;;;;;;;2.70;99.90;;;;;;4989666;28;19928;-75
2022/03/31 04:42:12;;;;;;;;;;;2.70;99.90;;;;;;5003933;28;20020;-75
2022/03/31 04:44:38;;;;;;;;;;;2.70;99.90;;;;;;5009481;28;19918;-74
2022/03/31 04:47:07;;;;;;;;;;;2.60;99.90;;;;;;4993269;28;19923;-73
2022/03/31 04:49:33;;;;;;;;;;;2.60;99.90;;;;;;5010554;28;19944;-74
2022/03/31 04:51:59;;;;;;;;;;;3.40;99.90;;;;;;4990539;28;19921;-73
2022/03/31 04:54:25;;;;;;;;;;;2.60;99.90;;;;;;5008873;28;20016;-74
2022/03/31 04:56:50;;;;;;;;;;;2.70;99.90;;;;;;4989480;28;20004;-74
2022/03/31 04:59:16;;;;;;;;;;;2.70;99.90;;;;;;5002798;28;20300;-73
2022/03/31 05:01:41;;;;;;;;;;;2.60;99.90;;;;;;5010864;28;19917;-73
2022/03/31 05:04:09;;;;;;;;;;;2.60;99.90;;;;;;5009872;28;19929;-73
2022/03/31 05:06:35;;;;;;;;;;;2.70;99.90;;;;;;4993247;28;19925;-73
2022/03/31 05:09:01;;;;;;;;;;;2.70;99.90;;;;;;4993283;28;19979;-73
2022/03/31 05:11:27;;;;;;;;;;;2.70;99.90;;;;;;5010499;28;19925;-73
2022/03/31 05:13:52;;;;;;;;;;;2.60;99.90;;;;;;5010077;28;19924;-74
2022/03/31 05:16:18;;;;;;;;;;;2.60;99.90;;;;;;5009274;28;19924;-73
2022/03/31 05:18:43;;;;;;;;;;;2.70;99.90;;;;;;5009537;28;20377;-73
2022/03/31 05:21:09;;;;;;;;;;;2.70;99.90;;;;;;5009455;28;19921;-73
2022/03/31 05:23:35;;;;;;;;;;;2.70;99.90;;;;;;5009586;28;19932;-73
2022/03/31 05:26:00;;;;;;;;;;;2.70;99.90;;;;;;5009582;28;20266;-72
2022/03/31 05:28:26;;;;;;;;;;;2.70;99.90;;;;;;4992774;28;20432;-72
2022/03/31 05:30:51;;;;;;;;;;;2.70;99.90;;;;;;5009149;28;19917;-72
2022/03/31 05:33:17;;;;;;;;;;;2.80;99.90;;;;;;4994175;28;20000;-73
2022/03/31 05:35:42;;;;;;;;;;;3.40;99.90;;;;;;5013531;28;19917;-72
2022/03/31 05:38:08;;;;;;;;;;;3.20;99.90;;;;;;5014692;28;20012;-74
2022/03/31 05:40:34;;;;;;;;;;;3.50;99.90;;;;;;5012704;28;19921;-73
2022/03/31 05:42:59;;;;;;;;;;;2.80;99.90;;;;;;4995461;28;19917;-73
2022/03/31 05:45:25;;;;;;;;;;;2.70;99.90;;;;;;5012475;28;19960;-73
2022/03/31 05:47:51;;;;;;;;;;;2.70;99.90;;;;;;5014230;28;19917;-72
2022/03/31 05:50:17;;;;;;;;;;;2.70;99.90;;;;;;5012538;28;19924;-72
2022/03/31 05:52:43;;;;;;;;;;;2.70;99.90;;;;;;4996538;28;19921;-72
2022/03/31 05:55:10;;;;;;;;;;;2.90;99.90;;;;;;5014334;28;19925;-72
2022/03/31 05:57:36;;;;;;;;;;;2.70;99.90;;;;;;5013001;28;19963;-72
2022/03/31 06:00:06;;;;;;;;;;;2.70;99.90;;;;;;5014145;28;19999;-72
2022/03/31 06:02:31;;;;;;;;;;;3.00;99.90;;;;;;5012377;28;19925;-72
2022/03/31 06:04:57;;;;;;;;;;;2.70;99.90;;;;;;4996319;28;20698;-72
2022/03/31 06:07:22;;;;;;;;;;;2.60;99.90;;;;;;5012333;28;19924;-72
2022/03/31 06:09:48;;;;;;;;;;;2.60;99.90;;;;;;5012630;28;19921;-72
2022/03/31 06:12:13;;;;;;;;;;;2.80;99.90;;;;;;5015684;28;20399;-72
2022/03/31 06:14:39;;;;;;;;;;;2.70;99.90;;;;;;5015923;28;19921;-73
2022/03/31 06:17:04;;;;;;;;;;;2.70;99.90;;;;;;5016101;28;19927;-72
2022/03/31 06:19:30;;;;;;;;;;;2.70;99.90;;;;;;5015587;28;19917;-73
2022/03/31 06:21:55;;;;;;;;;;;3.00;99.90;;;;;;4983298;28;19947;-72
2022/03/31 06:24:21;;;;;;;;;;;2.80;99.90;;;;;;5015425;28;19942;-73
2022/03/31 06:26:47;;;;;;;;;;;2.70;99.90;;;;;;5015900;28;20361;-73
2022/03/31 06:29:13;;;;;;;;;;;2.80;99.90;;;;;;5033577;28;19924;-72
2022/03/31 06:31:38;;;;;;;;;;;2.70;99.90;;;;;;5033091;28;19929;-72
2022/03/31 06:34:04;;;;;;;;;;;2.80;99.90;;;;;;5015608;28;20273;-73
2022/03/31 06:36:30;;;;;;;;;;;3.40;99.90;;;;;;5015305;28;20051;-73
2022/03/31 06:38:56;;;;;;;;;;;2.80;99.90;;;;;;5015117;28;19925;-73
2022/03/31 06:41:22;;;;;;;;;;;3.20;99.90;;;;;;5015200;28;20400;-73
2022/03/31 06:43:50;;;;;;;;;;;2.90;99.90;;;;;;5014979;28;19917;-73
2022/03/31 06:46:16;;;;;;;;;;;2.90;99.90;;;;;;5031994;28;19939;-73
2022/03/31 06:48:43;;;;;;;;;;;2.90;99.90;;;;;;5015006;28;19917;-73
2022/03/31 06:51:10;;;;;;;;;;;2.90;99.90;;;;;;5033274;28;19920;-73
2022/03/31 06:53:39;;;;;;;;;;;2.90;99.90;;;;;;5014699;28;19928;-73
2022/03/31 06:56:05;;;;;;;;;;;2.90;99.90;;;;;;5015186;28;19921;-73
2022/03/31 06:58:31;;;;;;;;;;;2.90;99.90;;;;;;5014204;28;19917;-73
2022/03/31 07:00:57;;;;;;;;;;;2.90;99.90;;;;;;5015015;28;19920;-73
2022/03/31 07:03:22;;;;;;;;;;;2.90;99.90;;;;;;5014664;28;19963;-72
2022/03/31 07:05:48;;;;;;;;;;;3.00;99.90;;;;;;5014262;28;19943;-72
2022/03/31 07:08:14;;;;;;;;;;;3.80;99.90;;;;;;5015118;28;20368;-73
2022/03/31 07:10:39;;;;;;;;;;;3.00;99.90;;;;;;5032174;28;19962;-73
2022/03/31 07:13:05;;;;;;;;;;;3.00;99.90;;;;;;5014757;28;19976;-74
2022/03/31 07:15:33;;;;;;;;;;;3.30;99.90;;;;;;5012392;28;20384;-72
2022/03/31 07:18:03;;;;;;;;;;;2.90;99.90;;;;;;5011460;28;19940;-72
2022/03/31 07:20:32;;;;;;;;;;;2.90;99.90;;;;;;4994190;28;19917;-72
2022/03/31 07:22:58;;;;;;;;;;;3.00;99.90;;;;;;4993491;28;19944;-72
2022/03/31 07:25:23;;;;;;;;;;;3.00;99.90;;;;;;4994478;28;19917;-72
2022/03/31 07:27:49;;;;;;;;;;;3.00;99.90;;;;;;4995127;28;19968;-72
2022/03/31 07:30:16;;;;;;;;;;;2.90;99.90;;;;;;5012662;28;19971;-73
2022/03/31 07:32:52;;;;;;;;;;;3.00;99.90;;;;;;4993547;28;20382;-73
2022/03/31 07:35:18;;;;;;;;;;;3.00;99.90;;;;;;4994400;28;19921;-72
2022/03/31 07:37:44;;;;;;;;;;;3.30;99.90;;;;;;4994436;28;19918;-72
2022/03/31 07:40:10;;;;;;;;;;;3.00;99.90;;;;;;4992683;28;20401;-73
2022/03/31 07:42:35;;;;;;;;;;;3.00;99.90;;;;;;4993050;28;19945;-72
2022/03/31 07:45:01;;;;;;;;;;;3.00;99.90;;;;;;5012044;28;19917;-72
2022/03/31 07:47:26;;;;;;;;;;;3.10;99.90;;;;;;5011774;28;19917;-72
2022/03/31 07:49:53;;;;;;;;;;;3.10;99.90;;;;;;5014121;28;20397;-72
2022/03/31 07:52:21;;;;;;;;;;;3.00;99.90;;;;;;5013700;28;19991;-73
2022/03/31 07:54:47;;;;;;;;;;;3.10;99.90;;;;;;5031588;28;19920;-73
2022/03/31 07:57:13;;;;;;;;;;;3.00;99.90;;;;;;5012970;28;20004;-71
2022/03/31 07:59:39;;;;;;;;;;;3.10;99.90;;;;;;5021483;28;20567;-72
2022/03/31 08:02:05;;;;;;;;;;;3.10;99.90;;;;;;5014009;28;19968;-72
2022/03/31 08:04:30;;;;;;;;;;;3.10;99.90;;;;;;5013313;28;19975;-72
2022/03/31 08:06:56;;;;;;;;;;;3.10;99.90;;;;;;5013423;28;20373;-73
2022/03/31 08:09:22;;;;;;;;;;;3.20;99.90;;;;;;5013379;28;20306;-73
2022/03/31 08:11:49;;;;;;;;;;;3.10;99.90;;;;;;5031210;28;20007;-73
2022/03/31 08:14:16;;;;;;;;;;;3.10;99.90;;;;;;5013679;28;19917;-73
2022/03/31 08:16:46;;;;;;;;;;;2.90;99.90;;;;;;5030894;28;19917;-72
2022/03/31 08:19:16;;;;;;;;;;;3.00;99.90;;;;;;5013672;28;20018;-72
2022/03/31 08:21:44;;;;;;;;;;;2.90;99.90;;;;;;4996745;28;19932;-72
2022/03/31 08:24:11;;;;;;;;;;;2.90;99.90;;;;;;5013489;28;20463;-73
2022/03/31 08:26:37;;;;;;;;;;;2.90;99.90;;;;;;5012790;28;19921;-73
2022/03/31 08:29:03;;;;;;;;;;;2.90;99.90;;;;;;5013431;28;20396;-72
2022/03/31 08:31:29;;;;;;;;;;;2.90;99.90;;;;;;5012655;28;19928;-73
2022/03/31 08:33:55;;;;;;;;;;;2.70;99.90;;;;;;5013697;28;20369;-72
2022/03/31 08:36:20;;;;;;;;;;;2.80;99.90;;;;;;5013981;28;19978;-73
2022/03/31 08:38:46;;;;;;;;;;;2.80;99.90;;;;;;5012913;28;19972;-73
2022/03/31 08:41:13;;;;;;;;;;;2.90;99.90;;;;;;5013332;28;20016;-73
2022/03/31 08:43:40;;;;;;;;;;;3.10;99.90;;;;;;5012850;28;19929;-72
2022/03/31 08:46:08;;;;;;;;;;;2.60;99.90;;;;;;5013152;28;19965;-73
2022/03/31 08:48:33;;;;;;;;;;;3.00;99.90;;;;;;5013057;28;19924;-73
2022/03/31 08:50:59;;;;;;;;;;;2.60;99.90;;;;;;5012939;28;19917;-73
2022/03/31 08:53:25;;;;;;;;;;;2.60;99.90;;;;;;5012805;28;20305;-73
2022/03/31 08:55:50;;;;;;;;;;;2.30;99.90;;;;;;5030858;28;19924;-73
2022/03/31 08:58:16;;;;;;;;;;;2.60;99.90;;;;;;5012828;28;20388;-73
2022/03/31 09:00:43;;;;;;;;;;;2.80;99.90;;;;;;5012612;28;19947;-73
2022/03/31 09:03:09;;;;;;;;;;;2.50;99.90;;;;;;5013075;28;20003;-72
2022/03/31 09:05:42;;;;;;;;;;;2.50;99.90;;;;;;5012296;28;19925;-73
2022/03/31 09:08:11;;;;;;;;;;;2.40;99.90;;;;;;5014464;28;20315;-73
2022/03/31 09:10:44;;;;;;;;;;;2.40;99.90;;;;;;5016535;28;19921;-71
2022/03/31 09:13:40;;;;;;;;;;;2.30;99.90;;;;;;5034668;28;19961;-75
2022/03/31 09:16:11;;;;;;;;;;;2.30;99.90;;;;;;4999241;28;20329;-73
2022/03/31 09:18:38;;;;;;;;;;;2.20;99.90;;;;;;5016952;28;19921;-73
2022/03/31 09:21:04;;;;;;;;;;;2.10;99.90;;;;;;5034648;28;19987;-73
2022/03/31 09:23:34;;;;;;;;;;;2.00;99.90;;;;;;5016366;28;20000;-73
2022/03/31 09:26:01;;;;;;;;;;;1.90;99.90;;;;;;5016776;28;19963;-72
2022/03/31 09:28:27;;;;;;;;;;;1.90;99.90;;;;;;5016668;28;20411;-72
2022/03/31 09:30:53;;;;;;;;;;;1.90;99.90;;;;;;5016778;28;19921;-72
2022/03/31 09:33:25;;;;;;;;;;;1.90;99.90;;;;;;5016638;28;19917;-73
2022/03/31 09:36:01;;;;;;;;;;;1.80;99.90;;;;;;5016611;28;20257;-72
2022/03/31 09:38:27;;;;;;;;;;;1.80;99.90;;;;;;5033961;28;19917;-72
2022/03/31 09:40:54;;;;;;;;;;;1.80;99.90;;;;;;5034178;28;20063;-72
2022/03/31 09:43:20;;;;;;;;;;;2.90;99.90;;;;;;5016307;28;20008;-72
2022/03/31 09:45:45;;;;;;;;;;;1.80;99.90;;;;;;5015909;28;20004;-71
2022/03/31 09:48:18;;;;;;;;;;;2.50;99.90;;;;;;5016406;28;20333;-72
2022/03/31 09:50:44;;;;;;;;;;;1.80;99.90;;;;;;5015913;28;19921;-72
2022/03/31 09:53:11;;;;;;;;;;;2.40;99.90;;;;;;5033949;28;19928;-72
2022/03/31 09:55:36;;;;;;;;;;;1.70;99.90;;;;;;5033381;28;19973;-72
2022/03/31 09:58:02;;;;;;;;;;;1.70;99.90;;;;;;5016440;28;19964;-72
2022/03/31 10:00:28;;;;;;;;;;;1.60;99.90;;;;;;5015973;28;20424;-72
2022/03/31 10:02:54;;;;;;;;;;;1.70;99.90;;;;;;5015994;28;19983;-73
2022/03/31 10:05:20;;;;;;;;;;;1.60;99.90;;;;;;5031920;28;19921;-71
2022/03/31 10:07:46;;;;;;;;;;;1.60;99.90;;;;;;5013533;28;19922;-72
2022/03/31 10:10:12;;;;;;;;;;;1.60;99.90;;;;;;4996300;28;19965;-72
2022/03/31 10:12:50;;;;;;;;;;;1.60;99.90;;;;;;5013605;28;20335;-73
2022/03/31 10:15:30;;;;;;;;;;;1.50;99.90;;;;;;4996339;28;19917;-72
2022/03/31 10:17:56;;;;;;;;;;;1.50;99.90;;;;;;5014040;28;20389;-72
2022/03/31 10:20:22;;;;;;;;;;;1.50;99.90;;;;;;4995219;28;19917;-72
2022/03/31 10:25:46;;;;;;;;;;;1.50;99.90;;;;;;4995582;28;19976;-73
2022/03/31 10:28:13;;;;;;;;;;;1.50;99.90;;;;;;4995920;28;20369;-72
2022/03/31 10:30:39;;;;;;;;;;;1.50;99.90;;;;;;4995480;28;19918;-72
2022/03/31 10:33:07;;;;;;;;;;;1.50;99.90;;;;;;4995840;28;19921;-73
2022/03/31 10:35:37;;;;;;;;;;;1.50;99.90;;;;;;4995523;28;20000;-72
2022/03/31 10:38:12;;;;;;;;;;;1.40;99.90;;;;;;5013301;28;19918;-72
2022/03/31 10:40:38;;;;;;;;;;;1.40;99.90;;;;;;4995668;28;20392;-73
2022/03/31 10:43:11;;;;;;;;;;;1.40;99.90;;;;;;4996181;28;20362;-72
2022/03/31 10:45:42;;;;;;;;;;;1.40;99.90;;;;;;4995531;28;19922;-72
2022/03/31 10:48:13;;;;;;;;;;;1.40;99.90;;;;;;4995834;28;20363;-72
2022/03/31 10:50:38;;;;;;;;;;;1.40;99.90;;;;;;4995441;28;20353;-72
2022/03/31 10:53:04;;;;;;;;;;;1.40;99.90;;;;;;5013127;28;19921;-72
2022/03/31 10:55:38;;;;;;;;;;;1.50;99.90;;;;;;4975983;28;20322;-72
2022/03/31 10:58:05;;;;;;;;;;;1.40;99.90;;;;;;4975929;28;19964;-73
2022/03/31 11:00:30;;;;;;;;;;;1.30;99.90;;;;;;4974118;28;20393;-72
2022/03/31 11:02:56;;;;;;;;;;;1.30;99.90;;;;;;4974473;28;19922;-73
2022/03/31 11:05:22;;;;;;;;;;;1.30;99.90;;;;;;4974953;28;19940;-73
2022/03/31 11:07:48;;;;;;;;;;;1.20;99.90;;;;;;4992910;28;19924;-72
2022/03/31 11:10:15;;;;;;;;;;;1.20;99.90;;;;;;4975762;28;20282;-72
2022/03/31 11:12:41;;;;;;;;;;;1.20;99.90;;;;;;4975229;28;19983;-73
2022/03/31 11:15:16;;;;;;;;;;;1.20;99.90;;;;;;4975883;28;20297;-72
2022/03/31 11:17:42;;;;;;;;;;;1.30;99.90;;;;;;4992658;28;19918;-72
2022/03/31 11:20:15;;;;;;;;;;;1.10;99.90;;;;;;4975206;28;20337;-72
2022/03/31 11:22:51;;;;;;;;;;;1.10;99.90;;;;;;4975332;28;20366;-72
2022/03/31 11:25:17;;;;;;;;;;;-0.50;99.90;;;;;;4975345;28;20025;-72
2022/03/31 11:27:43;;;;;;;;;;;1.10;99.90;;;;;;4988504;28;19993;-73
2022/03/31 11:30:13;;;;;;;;;;;1.10;99.90;;;;;;4974297;28;20001;-73
2022/03/31 11:32:40;;;;;;;;;;;1.00;99.90;;;;;;4974460;28;19929;-72
2022/03/31 11:35:10;;;;;;;;;;;1.00;99.90;;;;;;4975255;28;19925;-72
2022/03/31 11:37:42;;;;;;;;;;;1.00;99.90;;;;;;4972670;28;20165;-73
2022/03/31 11:40:10;;;;;;;;;;;1.00;99.90;;;;;;4974423;28;20009;-72
2022/03/31 11:42:42;;;;;;;;;;;1.00;99.90;;;;;;4974925;28;19928;-73
2022/03/31 11:45:08;;;;;;;;;;;1.00;99.90;;;;;;4974936;28;19918;-74
2022/03/31 11:47:34;;;;;;;;;;;0.90;99.90;;;;;;4974814;28;19972;-73
2022/03/31 11:50:00;;;;;;;;;;;0.90;99.90;;;;;;4975400;28;19968;-73
2022/03/31 11:52:32;;;;;;;;;;;0.90;99.90;;;;;;4992563;28;19930;-73
2022/03/31 11:55:00;;;;;;;;;;;0.80;99.90;;;;;;4975195;28;19917;-73
2022/03/31 11:57:27;;;;;;;;;;;0.80;99.90;;;;;;4975386;28;19918;-73
2022/03/31 11:59:53;;;;;;;;;;;0.80;99.90;;;;;;4973368;28;19917;-73
2022/03/31 12:02:18;;;;;;;;;;;0.80;99.90;;;;;;4975003;28;20286;-73
2022/03/31 12:04:48;;;;;;;;;;;0.80;99.90;;;;;;4992187;28;20009;-72
2022/03/31 12:07:19;;;;;;;;;;;0.80;99.90;;;;;;5007990;28;19922;-72
2022/03/31 12:09:45;;;;;;;;;;;0.80;99.90;;;;;;4991766;28;20012;-72
2022/03/31 12:12:11;;;;;;;;;;;0.90;99.90;;;;;;4993827;28;20059;-72
2022/03/31 12:14:38;;;;;;;;;;;0.90;99.90;;;;;;4993721;28;19940;-72
2022/03/31 12:17:03;;;;;;;;;;;0.80;99.90;;;;;;4994293;28;19925;-72
2022/03/31 12:19:39;;;;;;;;;;;0.80;99.90;;;;;;5011578;28;20381;-73
2022/03/31 12:22:05;;;;;;;;;;;0.80;99.90;;;;;;4994607;28;19917;-73
2022/03/31 12:24:31;;;;;;;;;;;0.80;99.90;;;;;;4994240;28;19917;-73
2022/03/31 12:26:57;;;;;;;;;;;0.90;99.90;;;;;;4991422;28;19921;-72
2022/03/31 12:29:23;;;;;;;;;;;0.90;99.90;;;;;;5010516;28;19923;-74
2022/03/31 12:32:02;;;;;;;;;;;0.90;99.90;;;;;;5009495;28;19968;-73
2022/03/31 12:34:28;;;;;;;;;;;0.90;99.90;;;;;;4993464;28;19918;-73
2022/03/31 12:36:54;;;;;;;;;;;0.90;99.90;;;;;;4993670;28;19959;-73
2022/03/31 12:39:20;;;;;;;;;;;1.00;99.90;;;;;;4993614;28;19924;-73
2022/03/31 12:41:50;;;;;;;;;;;1.00;99.90;;;;;;4993381;28;19929;-73
2022/03/31 12:44:17;;;;;;;;;;;1.60;99.90;;;;;;4993468;28;20373;-73
2022/03/31 12:46:42;;;;;;;;;;;1.90;99.90;;;;;;5010947;28;19968;-73
2022/03/31 12:49:10;;;;;;;;;;;0.90;99.90;;;;;;4993574;28;19968;-72
2022/03/31 12:51:55;;;;;;;;;;;1.00;99.90;;;;;;4993555;28;19975;-71
2022/03/31 12:54:20;;;;;;;;;;;1.00;99.90;;;;;;4993748;28;19917;-73
2022/03/31 12:56:47;;;;;;;;;;;1.00;99.90;;;;;;5010916;28;19976;-73
2022/03/31 12:59:19;;;;;;;;;;;1.10;99.90;;;;;;5011080;28;20000;-72
2022/03/31 13:01:58;;;;;;;;;;;1.10;99.90;;;;;;4993034;28;19921;-72
2022/03/31 13:04:24;;;;;;;;;;;1.10;99.90;;;;;;4992272;28;20255;-72
2022/03/31 13:06:50;;;;;;;;;;;1.10;99.90;;;;;;4992985;28;19928;-71
2022/03/31 13:09:16;;;;;;;;;;;1.10;99.90;;;;;;5009816;28;19964;-72
2022/03/31 13:11:43;;;;;;;;;;;1.10;99.90;;;;;;4993146;28;19929;-73
2022/03/31 13:14:10;;;;;;;;;;;1.20;99.90;;;;;;4993877;28;19917;-72
2022/03/31 13:16:37;;;;;;;;;;;1.20;99.90;;;;;;4993456;28;19926;-72
2022/03/31 13:19:03;;;;;;;;;;;1.20;99.90;;;;;;5010538;28;19918;-73
2022/03/31 13:21:28;;;;;;;;;;;1.30;99.90;;;;;;4993490;28;19921;-72
2022/03/31 13:23:54;;;;;;;;;;;1.20;99.90;;;;;;4992822;28;19917;-72
2022/03/31 13:26:20;;;;;;;;;;;1.20;99.90;;;;;;5010739;28;19921;-72
2022/03/31 13:28:46;;;;;;;;;;;1.20;99.90;;;;;;5010420;28;19925;-72
2022/03/31 13:31:11;;;;;;;;;;;1.20;99.90;;;;;;5009198;28;19939;-72
2022/03/31 13:33:37;;;;;;;;;;;1.20;99.90;;;;;;5009715;28;19924;-72
2022/03/31 13:36:03;;;;;;;;;;;1.20;99.90;;;;;;5009199;28;20350;-72
2022/03/31 13:38:34;;;;;;;;;;;1.20;99.90;;;;;;4990896;28;20008;-72
2022/03/31 13:41:00;;;;;;;;;;;1.20;99.90;;;;;;4991633;28;19926;-72
2022/03/31 13:43:26;;;;;;;;;;;1.10;99.90;;;;;;5009424;28;19928;-72
2022/03/31 13:45:52;;;;;;;;;;;1.10;99.90;;;;;;4991844;28;19999;-72
2022/03/31 13:48:18;;;;;;;;;;;2.30;99.90;;;;;;5009349;28;20411;-72
2022/03/31 13:50:44;;;;;;;;;;;1.10;99.90;;;;;;5010328;28;19917;-72
2022/03/31 13:53:56;;;;;;;;;;;1.10;99.90;;;;;;4991395;28;19922;-73
2022/03/31 13:55:56;;;;;;;;;;;1.00;99.90;;;;;;4989404;28;19974;-73
2022/03/31 14:01:13;;;;;;;;;;;1.00;99.90;;;;;;4995443;28;19940;-72
2022/03/31 14:03:41;;;;;;;;;;;1.00;99.90;;;;;;4994846;28;19918;-72
2022/03/31 14:06:06;;;;;;;;;;;1.00;99.90;;;;;;5009915;28;19928;-72
2022/03/31 14:08:32;;;;;;;;;;;1.00;99.90;;;;;;4996616;28;19921;-73
2022/03/31 14:10:58;;;;;;;;;;;1.00;99.90;;;;;;4995789;28;19924;-72
2022/03/31 14:13:23;;;;;;;;;;;1.00;99.90;;;;;;5013800;28;19925;-72
2022/03/31 14:15:49;;;;;;;;;;;1.00;99.90;;;;;;4991685;28;19917;-74
2022/03/31 14:18:14;;;;;;;;;;;1.10;99.90;;;;;;4994388;28;20004;-72
2022/03/31 14:20:40;;;;;;;;;;;1.60;99.90;;;;;;4994172;28;19972;-72
2022/03/31 14:23:06;;;;;;;;;;;1.00;99.90;;;;;;4993858;28;19921;-71
2022/03/31 14:25:31;;;;;;;;;;;1.00;99.90;;;;;;4994165;28;19924;-72
2022/03/31 14:27:57;;;;;;;;;;;0.90;99.90;;;;;;4976188;28;19924;-73
2022/03/31 14:30:23;;;;;;;;;;;0.90;99.90;;;;;;4994147;28;20398;-72
2022/03/31 14:32:49;;;;;;;;;;;0.90;99.90;;;;;;4993523;28;19967;-72
2022/03/31 14:35:14;;;;;;;;;;;1.70;99.90;;;;;;4976539;28;19922;-72
2022/03/31 14:37:40;;;;;;;;;;;0.90;99.90;;;;;;4976730;28;19932;-72